sensor_id;sensor_type;location;lat;lon;timestamp;P1;durP1;ratioP1;P2;durP2;ratioP2
13455;SDS011;6800;50.940;6.940;2022-11-15T00:03:29;9.63;;;8.73;;
13455;SDS011;6800;50.940;6.940;2022-11-15T00:07:30;11.40;;;9.63;;
13455;SDS011;6800;50.940;6.940;2022-11-15T00:11:30;10.07;;;9.03;;
13455;SDS011;6800;50.940;6.940;2022-11-15T00:15:30;10.03;;;9.10;;
13455;SDS011;6800;50.940;6.940;2022-11-15T00:19:30;10.27;;;8.47;;
13455;SDS011;6800;50.940;6.940;2022-11-15T00:23:31;10.60;;;9.50;;
13455;SDS011;6800;50.940;6.940;2022-11-15T00:27:31;10.10;;;9.10;;
13455;SDS011;6800;50.940;6.940;2022-11-15T00:31:31;10.50;;;9.33;;
13455;SDS011;6800;50.940;6.940;2022-11-15T00:35:32;12.90;;;9.73;;
13455;SDS011;6800;50.940;6.940;2022-11-15T00:39:35;10.53;;;9.43;;
13455;SDS011;6800;50.940;6.940;2022-11-15T00:43:36;10.07;;;9.07;;
13455;SDS011;6800;50.940;6.940;2022-11-15T00:47:37;10.57;;;9.50;;
13455;SDS011;6800;50.940;6.940;2022-11-15T00:51:38;9.75;;;8.77;;
13455;SDS011;6800;50.940;6.940;2022-11-15T00:55:38;10.20;;;9.20;;
13455;SDS011;6800;50.940;6.940;2022-11-15T00:59:38;9.90;;;9.00;;
13455;SDS011;6800;50.940;6.940;2022-11-15T01:03:39;12.27;;;9.03;;
13455;SDS011;6800;50.940;6.940;2022-11-15T01:07:40;10.00;;;9.10;;
13455;SDS011;6800;50.940;6.940;2022-11-15T01:11:41;10.10;;;9.10;;
13455;SDS011;6800;50.940;6.940;2022-11-15T01:15:42;10.90;;;9.80;;
13455;SDS011;6800;50.940;6.940;2022-11-15T01:19:42;10.23;;;9.23;;
13455;SDS011;6800;50.940;6.940;2022-11-15T01:23:42;10.20;;;9.20;;
13455;SDS011;6800;50.940;6.940;2022-11-15T01:27:43;10.13;;;9.13;;
13455;SDS011;6800;50.940;6.940;2022-11-15T01:31:43;9.97;;;8.97;;
13455;SDS011;6800;50.940;6.940;2022-11-15T01:35:44;9.93;;;9.02;;
13455;SDS011;6800;50.940;6.940;2022-11-15T01:39:44;11.57;;;9.37;;
13455;SDS011;6800;50.940;6.940;2022-11-15T01:43:45;10.83;;;9.80;;
13455;SDS011;6800;50.940;6.940;2022-11-15T01:47:51;10.33;;;9.23;;
13455;SDS011;6800;50.940;6.940;2022-11-15T01:51:54;10.13;;;9.13;;
13455;SDS011;6800;50.940;6.940;2022-11-15T01:55:55;11.20;;;9.17;;
13455;SDS011;6800;50.940;6.940;2022-11-15T01:59:55;10.07;;;9.07;;
13455;SDS011;6800;50.940;6.940;2022-11-15T02:03:58;11.83;;;9.77;;
13455;SDS011;6800;50.940;6.940;2022-11-15T02:08:02;10.03;;;9.03;;
13455;SDS011;6800;50.940;6.940;2022-11-15T02:12:03;10.63;;;9.17;;
13455;SDS011;6800;50.940;6.940;2022-11-15T02:16:06;10.27;;;9.37;;
13455;SDS011;6800;50.940;6.940;2022-11-15T02:20:27;9.10;;;8.07;;
13455;SDS011;6800;50.940;6.940;2022-11-15T02:29:11;9.57;;;8.57;;
13455;SDS011;6800;50.940;6.940;2022-11-15T02:42:04;9.23;;;8.30;;
13455;SDS011;6800;50.940;6.940;2022-11-15T02:46:40;9.57;;;8.43;;
13455;SDS011;6800;50.940;6.940;2022-11-15T02:51:04;9.70;;;8.80;;
13455;SDS011;6800;50.940;6.940;2022-11-15T02:55:04;10.93;;;8.90;;
13455;SDS011;6800;50.940;6.940;2022-11-15T03:03:28;9.20;;;8.33;;
13455;SDS011;6800;50.940;6.940;2022-11-15T03:07:43;9.43;;;8.10;;
13455;SDS011;6800;50.940;6.940;2022-11-15T03:11:56;9.23;;;8.33;;
13455;SDS011;6800;50.940;6.940;2022-11-15T03:16:04;8.63;;;7.90;;
13455;SDS011;6800;50.940;6.940;2022-11-15T03:20:09;8.83;;;7.93;;
13455;SDS011;6800;50.940;6.940;2022-11-15T03:24:13;8.33;;;7.53;;
13455;SDS011;6800;50.940;6.940;2022-11-15T03:28:18;7.97;;;7.17;;
13455;SDS011;6800;50.940;6.940;2022-11-15T03:32:23;8.27;;;7.47;;
13455;SDS011;6800;50.940;6.940;2022-11-15T03:36:26;7.60;;;6.80;;
13455;SDS011;6800;50.940;6.940;2022-11-15T03:40:37;8.03;;;6.80;;
13455;SDS011;6800;50.940;6.940;2022-11-15T03:49:29;8.37;;;7.50;;
13455;SDS011;6800;50.940;6.940;2022-11-15T03:53:33;8.57;;;7.77;;
13455;SDS011;6800;50.940;6.940;2022-11-15T03:57:34;9.07;;;7.90;;
13455;SDS011;6800;50.940;6.940;2022-11-15T04:01:34;9.27;;;7.77;;
13455;SDS011;6800;50.940;6.940;2022-11-15T04:05:34;9.07;;;8.20;;
13455;SDS011;6800;50.940;6.940;2022-11-15T04:09:34;9.32;;;8.30;;
13455;SDS011;6800;50.940;6.940;2022-11-15T04:13:55;8.83;;;7.93;;
13455;SDS011;6800;50.940;6.940;2022-11-15T04:17:56;9.47;;;8.53;;
13455;SDS011;6800;50.940;6.940;2022-11-15T04:21:56;8.30;;;7.60;;
13455;SDS011;6800;50.940;6.940;2022-11-15T04:26:16;9.27;;;8.47;;
13455;SDS011;6800;50.940;6.940;2022-11-15T04:30:19;9.40;;;8.60;;
13455;SDS011;6800;50.940;6.940;2022-11-15T04:34:19;8.37;;;7.67;;
13455;SDS011;6800;50.940;6.940;2022-11-15T04:38:19;8.73;;;8.03;;
13455;SDS011;6800;50.940;6.940;2022-11-15T04:42:19;8.90;;;8.13;;
13455;SDS011;6800;50.940;6.940;2022-11-15T04:46:20;9.27;;;8.38;;
13455;SDS011;6800;50.940;6.940;2022-11-15T04:50:20;8.50;;;7.80;;
13455;SDS011;6800;50.940;6.940;2022-11-15T04:54:21;8.33;;;7.67;;
13455;SDS011;6800;50.940;6.940;2022-11-15T04:58:21;9.33;;;8.43;;
13455;SDS011;6800;50.940;6.940;2022-11-15T05:02:21;8.80;;;7.93;;
13455;SDS011;6800;50.940;6.940;2022-11-15T05:06:21;7.63;;;7.03;;
13455;SDS011;6800;50.940;6.940;2022-11-15T05:10:22;7.80;;;7.20;;
13455;SDS011;6800;50.940;6.940;2022-11-15T05:14:22;8.17;;;7.37;;
13455;SDS011;6800;50.940;6.940;2022-11-15T05:18:22;7.70;;;7.07;;
13455;SDS011;6800;50.940;6.940;2022-11-15T05:22:22;8.30;;;7.53;;
13455;SDS011;6800;50.940;6.940;2022-11-15T05:26:23;7.40;;;6.80;;
13455;SDS011;6800;50.940;6.940;2022-11-15T05:30:23;8.47;;;7.67;;
13455;SDS011;6800;50.940;6.940;2022-11-15T05:34:23;7.13;;;6.60;;
13455;SDS011;6800;50.940;6.940;2022-11-15T05:38:25;7.67;;;7.07;;
13455;SDS011;6800;50.940;6.940;2022-11-15T05:42:25;7.60;;;6.90;;
13455;SDS011;6800;50.940;6.940;2022-11-15T05:46:27;7.03;;;6.43;;
13455;SDS011;6800;50.940;6.940;2022-11-15T05:50:28;7.03;;;6.43;;
13455;SDS011;6800;50.940;6.940;2022-11-15T05:54:28;7.33;;;6.63;;
13455;SDS011;6800;50.940;6.940;2022-11-15T05:58:31;8.30;;;7.40;;
13455;SDS011;6800;50.940;6.940;2022-11-15T06:02:32;7.90;;;7.20;;
13455;SDS011;6800;50.940;6.940;2022-11-15T06:06:33;7.43;;;6.73;;
13455;SDS011;6800;50.940;6.940;2022-11-15T06:10:33;7.03;;;6.50;;
13455;SDS011;6800;50.940;6.940;2022-11-15T06:14:33;7.73;;;7.13;;
13455;SDS011;6800;50.940;6.940;2022-11-15T06:18:34;7.82;;;7.13;;
13455;SDS011;6800;50.940;6.940;2022-11-15T06:22:35;7.30;;;6.70;;
13455;SDS011;6800;50.940;6.940;2022-11-15T06:26:35;6.80;;;6.30;;
13455;SDS011;6800;50.940;6.940;2022-11-15T06:30:35;6.73;;;6.10;;
13455;SDS011;6800;50.940;6.940;2022-11-15T06:34:35;6.53;;;6.03;;
13455;SDS011;6800;50.940;6.940;2022-11-15T06:38:36;6.07;;;5.50;;
13455;SDS011;6800;50.940;6.940;2022-11-15T06:42:36;5.60;;;5.00;;
13455;SDS011;6800;50.940;6.940;2022-11-15T06:46:36;6.10;;;5.30;;
13455;SDS011;6800;50.940;6.940;2022-11-15T06:50:37;5.47;;;4.97;;
13455;SDS011;6800;50.940;6.940;2022-11-15T06:54:37;6.53;;;5.33;;
13455;SDS011;6800;50.940;6.940;2022-11-15T06:58:37;5.17;;;4.70;;
13455;SDS011;6800;50.940;6.940;2022-11-15T07:02:38;5.20;;;4.80;;
13455;SDS011;6800;50.940;6.940;2022-11-15T07:06:38;5.20;;;4.80;;
13455;SDS011;6800;50.940;6.940;2022-11-15T07:10:38;5.17;;;4.67;;
13455;SDS011;6800;50.940;6.940;2022-11-15T07:14:38;4.78;;;4.38;;
13455;SDS011;6800;50.940;6.940;2022-11-15T07:18:39;5.20;;;4.80;;
13455;SDS011;6800;50.940;6.940;2022-11-15T07:22:40;5.37;;;4.87;;
13455;SDS011;6800;50.940;6.940;2022-11-15T07:26:41;5.83;;;5.33;;
13455;SDS011;6800;50.940;6.940;2022-11-15T07:30:41;5.97;;;4.77;;
13455;SDS011;6800;50.940;6.940;2022-11-15T07:34:42;5.67;;;4.97;;
13455;SDS011;6800;50.940;6.940;2022-11-15T07:38:42;5.47;;;4.97;;
13455;SDS011;6800;50.940;6.940;2022-11-15T07:42:42;6.20;;;4.30;;
13455;SDS011;6800;50.940;6.940;2022-11-15T07:46:55;4.87;;;4.37;;
13455;SDS011;6800;50.940;6.940;2022-11-15T07:50:55;4.67;;;4.13;;
13455;SDS011;6800;50.940;6.940;2022-11-15T07:54:56;4.63;;;4.22;;
13455;SDS011;6800;50.940;6.940;2022-11-15T07:58:56;3.90;;;3.50;;
13455;SDS011;6800;50.940;6.940;2022-11-15T08:07:04;4.37;;;2.87;;
13455;SDS011;6800;50.940;6.940;2022-11-15T08:11:05;2.95;;;2.65;;
13455;SDS011;6800;50.940;6.940;2022-11-15T08:15:05;4.13;;;2.80;;
13455;SDS011;6800;50.940;6.940;2022-11-15T08:19:06;3.57;;;3.27;;
13455;SDS011;6800;50.940;6.940;2022-11-15T08:23:06;6.47;;;3.67;;
13455;SDS011;6800;50.940;6.940;2022-11-15T08:27:07;4.70;;;3.23;;
13455;SDS011;6800;50.940;6.940;2022-11-15T08:31:14;4.10;;;3.70;;
13455;SDS011;6800;50.940;6.940;2022-11-15T08:35:17;6.57;;;3.77;;
13455;SDS011;6800;50.940;6.940;2022-11-15T08:39:18;4.30;;;3.10;;
13455;SDS011;6800;50.940;6.940;2022-11-15T08:43:19;3.17;;;2.40;;
13455;SDS011;6800;50.940;6.940;2022-11-15T08:47:19;3.20;;;2.40;;
13455;SDS011;6800;50.940;6.940;2022-11-15T08:51:19;5.03;;;2.53;;
13455;SDS011;6800;50.940;6.940;2022-11-15T08:55:19;3.87;;;2.80;;
13455;SDS011;6800;50.940;6.940;2022-11-15T08:59:20;3.55;;;2.40;;
13455;SDS011;6800;50.940;6.940;2022-11-15T09:03:20;3.50;;;2.70;;
13455;SDS011;6800;50.940;6.940;2022-11-15T09:07:20;3.57;;;2.87;;
13455;SDS011;6800;50.940;6.940;2022-11-15T09:11:21;2.93;;;2.57;;
13455;SDS011;6800;50.940;6.940;2022-11-15T09:15:22;3.27;;;2.43;;
13455;SDS011;6800;50.940;6.940;2022-11-15T09:19:22;2.70;;;2.20;;
13455;SDS011;6800;50.940;6.940;2022-11-15T09:23:22;2.20;;;2.00;;
13455;SDS011;6800;50.940;6.940;2022-11-15T09:27:25;3.33;;;2.10;;
13455;SDS011;6800;50.940;6.940;2022-11-15T09:31:27;3.70;;;2.83;;
13455;SDS011;6800;50.940;6.940;2022-11-15T09:35:29;3.50;;;2.40;;
13455;SDS011;6800;50.940;6.940;2022-11-15T09:39:31;5.13;;;2.67;;
13455;SDS011;6800;50.940;6.940;2022-11-15T09:52:21;2.60;;;1.80;;
13455;SDS011;6800;50.940;6.940;2022-11-15T09:56:22;3.37;;;1.93;;
13455;SDS011;6800;50.940;6.940;2022-11-15T10:00:40;2.60;;;1.80;;
13455;SDS011;6800;50.940;6.940;2022-11-15T10:04:44;1.77;;;1.60;;
13455;SDS011;6800;50.940;6.940;2022-11-15T10:12:48;2.85;;;1.50;;
13455;SDS011;6800;50.940;6.940;2022-11-15T10:16:59;2.50;;;1.67;;
13455;SDS011;6800;50.940;6.940;2022-11-15T10:21:15;2.43;;;1.97;;
13455;SDS011;6800;50.940;6.940;2022-11-15T10:25:29;3.58;;;1.70;;
13455;SDS011;6800;50.940;6.940;2022-11-15T10:29:32;1.90;;;1.45;;
13455;SDS011;6800;50.940;6.940;2022-11-15T10:33:33;1.65;;;1.40;;
13455;SDS011;6800;50.940;6.940;2022-11-15T10:37:35;2.00;;;1.40;;
13455;SDS011;6800;50.940;6.940;2022-11-15T10:41:37;2.17;;;1.42;;
13455;SDS011;6800;50.940;6.940;2022-11-15T10:45:40;1.92;;;1.30;;
13455;SDS011;6800;50.940;6.940;2022-11-15T10:49:41;1.58;;;1.48;;
13455;SDS011;6800;50.940;6.940;2022-11-15T10:53:57;2.40;;;1.50;;
13455;SDS011;6800;50.940;6.940;2022-11-15T10:58:04;3.67;;;1.58;;
13455;SDS011;6800;50.940;6.940;2022-11-15T11:06:46;3.17;;;1.50;;
13455;SDS011;6800;50.940;6.940;2022-11-15T11:10:54;2.13;;;1.70;;
13455;SDS011;6800;50.940;6.940;2022-11-15T11:14:56;1.60;;;1.50;;
13455;SDS011;6800;50.940;6.940;2022-11-15T11:27:54;1.95;;;1.48;;
13455;SDS011;6800;50.940;6.940;2022-11-15T11:32:16;3.43;;;1.40;;
13455;SDS011;6800;50.940;6.940;2022-11-15T11:36:38;2.83;;;1.93;;
13455;SDS011;6800;50.940;6.940;2022-11-15T11:40:50;2.13;;;1.50;;
13455;SDS011;6800;50.940;6.940;2022-11-15T11:49:10;2.77;;;1.83;;
13455;SDS011;6800;50.940;6.940;2022-11-15T11:57:59;4.67;;;2.00;;
13455;SDS011;6800;50.940;6.940;2022-11-15T12:10:59;2.67;;;2.00;;
13455;SDS011;6800;50.940;6.940;2022-11-15T12:19:08;2.92;;;1.90;;
13455;SDS011;6800;50.940;6.940;2022-11-15T12:23:13;2.90;;;1.90;;
13455;SDS011;6800;50.940;6.940;2022-11-15T12:31:41;1.83;;;1.73;;
13455;SDS011;6800;50.940;6.940;2022-11-15T12:35:56;2.93;;;1.60;;
13455;SDS011;6800;50.940;6.940;2022-11-15T12:57:28;3.17;;;2.07;;
13455;SDS011;6800;50.940;6.940;2022-11-15T13:13:43;2.27;;;1.90;;
13455;SDS011;6800;50.940;6.940;2022-11-15T13:17:45;3.57;;;1.93;;
13455;SDS011;6800;50.940;6.940;2022-11-15T13:21:47;2.23;;;2.03;;
13455;SDS011;6800;50.940;6.940;2022-11-15T13:26:12;3.23;;;2.17;;
13455;SDS011;6800;50.940;6.940;2022-11-15T13:30:21;3.43;;;2.50;;
13455;SDS011;6800;50.940;6.940;2022-11-15T13:34:28;2.40;;;2.20;;
13455;SDS011;6800;50.940;6.940;2022-11-15T13:38:35;3.00;;;2.70;;
13455;SDS011;6800;50.940;6.940;2022-11-15T13:42:37;4.13;;;2.80;;
13455;SDS011;6800;50.940;6.940;2022-11-15T13:46:37;2.60;;;2.40;;
13455;SDS011;6800;50.940;6.940;2022-11-15T13:50:38;3.50;;;2.80;;
13455;SDS011;6800;50.940;6.940;2022-11-15T13:58:45;3.83;;;2.80;;
13455;SDS011;6800;50.940;6.940;2022-11-15T14:02:46;3.40;;;3.10;;
13455;SDS011;6800;50.940;6.940;2022-11-15T14:06:47;3.00;;;2.50;;
13455;SDS011;6800;50.940;6.940;2022-11-15T14:11:07;4.57;;;3.10;;
13455;SDS011;6800;50.940;6.940;2022-11-15T14:19:36;4.83;;;2.93;;
13455;SDS011;6800;50.940;6.940;2022-11-15T14:23:37;5.33;;;3.27;;
13455;SDS011;6800;50.940;6.940;2022-11-15T14:27:38;5.27;;;3.50;;
13455;SDS011;6800;50.940;6.940;2022-11-15T14:31:39;7.07;;;3.00;;
13455;SDS011;6800;50.940;6.940;2022-11-15T14:35:40;4.87;;;4.00;;
13455;SDS011;6800;50.940;6.940;2022-11-15T14:39:41;5.57;;;3.00;;
13455;SDS011;6800;50.940;6.940;2022-11-15T14:43:41;3.10;;;2.90;;
13455;SDS011;6800;50.940;6.940;2022-11-15T14:47:41;3.90;;;3.40;;
13455;SDS011;6800;50.940;6.940;2022-11-15T14:51:42;3.13;;;2.83;;
13455;SDS011;6800;50.940;6.940;2022-11-15T14:55:42;4.80;;;3.40;;
13455;SDS011;6800;50.940;6.940;2022-11-15T14:59:43;4.27;;;2.67;;
13455;SDS011;6800;50.940;6.940;2022-11-15T15:03:43;3.10;;;2.80;;
13455;SDS011;6800;50.940;6.940;2022-11-15T15:07:44;6.50;;;2.90;;
13455;SDS011;6800;50.940;6.940;2022-11-15T15:11:44;3.73;;;2.93;;
13455;SDS011;6800;50.940;6.940;2022-11-15T15:15:45;3.47;;;2.90;;
13455;SDS011;6800;50.940;6.940;2022-11-15T15:19:47;4.23;;;3.53;;
13455;SDS011;6800;50.940;6.940;2022-11-15T15:23:47;3.77;;;2.83;;
13455;SDS011;6800;50.940;6.940;2022-11-15T15:27:48;4.20;;;2.90;;
13455;SDS011;6800;50.940;6.940;2022-11-15T15:31:48;2.97;;;2.70;;
13455;SDS011;6800;50.940;6.940;2022-11-15T15:35:49;3.20;;;2.90;;
13455;SDS011;6800;50.940;6.940;2022-11-15T15:39:52;3.40;;;2.60;;
13455;SDS011;6800;50.940;6.940;2022-11-15T15:43:54;3.07;;;2.27;;
13455;SDS011;6800;50.940;6.940;2022-11-15T15:47:55;3.53;;;2.40;;
13455;SDS011;6800;50.940;6.940;2022-11-15T15:51:56;2.57;;;2.37;;
13455;SDS011;6800;50.940;6.940;2022-11-15T15:55:56;2.37;;;2.27;;
13455;SDS011;6800;50.940;6.940;2022-11-15T15:59:56;4.03;;;3.07;;
13455;SDS011;6800;50.940;6.940;2022-11-15T16:03:57;3.20;;;2.90;;
13455;SDS011;6800;50.940;6.940;2022-11-15T16:07:57;3.03;;;2.80;;
13455;SDS011;6800;50.940;6.940;2022-11-15T16:11:57;3.30;;;3.00;;
13455;SDS011;6800;50.940;6.940;2022-11-15T16:15:57;3.20;;;2.40;;
13455;SDS011;6800;50.940;6.940;2022-11-15T16:19:58;3.10;;;2.73;;
13455;SDS011;6800;50.940;6.940;2022-11-15T16:23:59;3.60;;;2.63;;
13455;SDS011;6800;50.940;6.940;2022-11-15T16:27:59;2.70;;;2.50;;
13455;SDS011;6800;50.940;6.940;2022-11-15T16:32:00;3.30;;;2.40;;
13455;SDS011;6800;50.940;6.940;2022-11-15T16:36:00;2.60;;;2.40;;
13455;SDS011;6800;50.940;6.940;2022-11-15T16:40:14;2.57;;;2.30;;
13455;SDS011;6800;50.940;6.940;2022-11-15T16:44:29;4.13;;;3.33;;
13455;SDS011;6800;50.940;6.940;2022-11-15T16:48:29;2.70;;;2.50;;
13455;SDS011;6800;50.940;6.940;2022-11-15T16:52:29;3.70;;;2.60;;
13455;SDS011;6800;50.940;6.940;2022-11-15T16:56:30;2.70;;;2.50;;
13455;SDS011;6800;50.940;6.940;2022-11-15T17:00:30;2.73;;;2.53;;
13455;SDS011;6800;50.940;6.940;2022-11-15T17:04:30;2.53;;;2.33;;
13455;SDS011;6800;50.940;6.940;2022-11-15T17:08:32;3.07;;;2.77;;
13455;SDS011;6800;50.940;6.940;2022-11-15T17:12:35;3.40;;;3.20;;
13455;SDS011;6800;50.940;6.940;2022-11-15T17:16:35;3.93;;;3.00;;
13455;SDS011;6800;50.940;6.940;2022-11-15T17:20:37;5.20;;;4.80;;
13455;SDS011;6800;50.940;6.940;2022-11-15T17:24:37;4.60;;;4.20;;
13455;SDS011;6800;50.940;6.940;2022-11-15T17:28:37;6.37;;;5.87;;
13455;SDS011;6800;50.940;6.940;2022-11-15T17:32:38;5.37;;;3.97;;
13455;SDS011;6800;50.940;6.940;2022-11-15T17:36:38;4.80;;;3.63;;
13455;SDS011;6800;50.940;6.940;2022-11-15T17:40:39;4.20;;;3.47;;
13455;SDS011;6800;50.940;6.940;2022-11-15T17:44:39;4.10;;;3.60;;
13455;SDS011;6800;50.940;6.940;2022-11-15T17:48:39;3.60;;;3.30;;
13455;SDS011;6800;50.940;6.940;2022-11-15T17:52:40;4.33;;;3.93;;
13455;SDS011;6800;50.940;6.940;2022-11-15T17:56:41;5.87;;;4.37;;
13455;SDS011;6800;50.940;6.940;2022-11-15T18:00:41;4.70;;;4.30;;
13455;SDS011;6800;50.940;6.940;2022-11-15T18:04:41;5.50;;;5.07;;
13455;SDS011;6800;50.940;6.940;2022-11-15T18:08:42;4.70;;;4.20;;
13455;SDS011;6800;50.940;6.940;2022-11-15T18:12:44;4.87;;;4.47;;
13455;SDS011;6800;50.940;6.940;2022-11-15T18:16:44;5.37;;;4.90;;
13455;SDS011;6800;50.940;6.940;2022-11-15T18:20:45;5.73;;;5.23;;
13455;SDS011;6800;50.940;6.940;2022-11-15T18:24:45;5.23;;;4.93;;
13455;SDS011;6800;50.940;6.940;2022-11-15T18:28:47;7.33;;;6.63;;
13455;SDS011;6800;50.940;6.940;2022-11-15T18:32:48;7.17;;;6.50;;
13455;SDS011;6800;50.940;6.940;2022-11-15T18:36:50;8.70;;;7.90;;
13455;SDS011;6800;50.940;6.940;2022-11-15T18:40:51;8.70;;;8.00;;
13455;SDS011;6800;50.940;6.940;2022-11-15T18:44:51;7.37;;;6.80;;
13455;SDS011;6800;50.940;6.940;2022-11-15T18:48:52;9.43;;;8.63;;
13455;SDS011;6800;50.940;6.940;2022-11-15T18:52:53;7.90;;;7.20;;
13455;SDS011;6800;50.940;6.940;2022-11-15T18:56:53;9.30;;;8.50;;
13455;SDS011;6800;50.940;6.940;2022-11-15T19:00:58;8.57;;;7.87;;
13455;SDS011;6800;50.940;6.940;2022-11-15T19:04:59;9.57;;;8.70;;
13455;SDS011;6800;50.940;6.940;2022-11-15T19:08:59;10.60;;;9.60;;
13455;SDS011;6800;50.940;6.940;2022-11-15T19:13:00;10.77;;;9.73;;
13455;SDS011;6800;50.940;6.940;2022-11-15T19:17:00;11.23;;;10.33;;
13455;SDS011;6800;50.940;6.940;2022-11-15T19:21:01;12.13;;;11.00;;
13455;SDS011;6800;50.940;6.940;2022-11-15T19:25:03;12.00;;;11.00;;
13455;SDS011;6800;50.940;6.940;2022-11-15T19:29:05;12.43;;;11.33;;
13455;SDS011;6800;50.940;6.940;2022-11-15T19:33:06;11.80;;;10.70;;
13455;SDS011;6800;50.940;6.940;2022-11-15T19:37:07;13.43;;;12.23;;
13455;SDS011;6800;50.940;6.940;2022-11-15T19:41:09;13.60;;;12.30;;
13455;SDS011;6800;50.940;6.940;2022-11-15T19:45:11;13.77;;;12.53;;
13455;SDS011;6800;50.940;6.940;2022-11-15T19:49:11;15.70;;;13.00;;
13455;SDS011;6800;50.940;6.940;2022-11-15T19:53:11;13.23;;;12.03;;
13455;SDS011;6800;50.940;6.940;2022-11-15T19:57:11;14.43;;;13.07;;
13455;SDS011;6800;50.940;6.940;2022-11-15T20:01:16;15.57;;;14.17;;
13455;SDS011;6800;50.940;6.940;2022-11-15T20:05:17;16.00;;;14.40;;
13455;SDS011;6800;50.940;6.940;2022-11-15T20:09:18;15.33;;;14.03;;
13455;SDS011;6800;50.940;6.940;2022-11-15T20:13:19;13.97;;;12.67;;
13455;SDS011;6800;50.940;6.940;2022-11-15T20:17:19;15.57;;;14.27;;
13455;SDS011;6800;50.940;6.940;2022-11-15T20:21:20;15.67;;;14.17;;
13455;SDS011;6800;50.940;6.940;2022-11-15T20:25:20;16.03;;;14.60;;
13455;SDS011;6800;50.940;6.940;2022-11-15T20:29:21;16.67;;;15.27;;
13455;SDS011;6800;50.940;6.940;2022-11-15T20:33:22;16.63;;;15.03;;
13455;SDS011;6800;50.940;6.940;2022-11-15T20:37:23;17.37;;;15.77;;
13455;SDS011;6800;50.940;6.940;2022-11-15T20:41:23;17.30;;;15.73;;
13455;SDS011;6800;50.940;6.940;2022-11-15T20:45:24;16.73;;;15.30;;
13455;SDS011;6800;50.940;6.940;2022-11-15T20:49:24;17.30;;;15.80;;
13455;SDS011;6800;50.940;6.940;2022-11-15T20:53:24;16.40;;;14.87;;
13455;SDS011;6800;50.940;6.940;2022-11-15T20:57:24;17.70;;;16.03;;
13455;SDS011;6800;50.940;6.940;2022-11-15T21:01:25;18.00;;;16.17;;
13455;SDS011;6800;50.940;6.940;2022-11-15T21:05:25;17.07;;;15.57;;
13455;SDS011;6800;50.940;6.940;2022-11-15T21:09:25;19.73;;;17.73;;
13455;SDS011;6800;50.940;6.940;2022-11-15T21:13:44;19.37;;;17.57;;
13455;SDS011;6800;50.940;6.940;2022-11-15T21:17:45;17.80;;;16.23;;
13455;SDS011;6800;50.940;6.940;2022-11-15T21:21:45;18.70;;;16.80;;
13455;SDS011;6800;50.940;6.940;2022-11-15T21:25:49;18.83;;;17.20;;
13455;SDS011;6800;50.940;6.940;2022-11-15T21:29:52;17.17;;;15.57;;
13455;SDS011;6800;50.940;6.940;2022-11-15T21:33:52;18.90;;;17.13;;
13455;SDS011;6800;50.940;6.940;2022-11-15T21:37:52;18.77;;;16.87;;
13455;SDS011;6800;50.940;6.940;2022-11-15T21:41:52;17.80;;;16.10;;
13455;SDS011;6800;50.940;6.940;2022-11-15T21:45:57;16.33;;;14.73;;
13455;SDS011;6800;50.940;6.940;2022-11-15T21:50:01;17.20;;;15.60;;
13455;SDS011;6800;50.940;6.940;2022-11-15T21:54:01;19.10;;;17.20;;
13455;SDS011;6800;50.940;6.940;2022-11-15T21:58:02;21.73;;;19.43;;
13455;SDS011;6800;50.940;6.940;2022-11-15T22:02:02;17.57;;;15.87;;
13455;SDS011;6800;50.940;6.940;2022-11-15T22:06:14;18.17;;;16.40;;
13455;SDS011;6800;50.940;6.940;2022-11-15T22:10:15;17.90;;;16.17;;
13455;SDS011;6800;50.940;6.940;2022-11-15T22:14:16;16.60;;;15.07;;
13455;SDS011;6800;50.940;6.940;2022-11-15T22:18:16;15.53;;;14.20;;
13455;SDS011;6800;50.940;6.940;2022-11-15T22:22:17;14.90;;;13.50;;
13455;SDS011;6800;50.940;6.940;2022-11-15T22:26:18;16.23;;;14.53;;
13455;SDS011;6800;50.940;6.940;2022-11-15T22:30:19;14.17;;;12.87;;
13455;SDS011;6800;50.940;6.940;2022-11-15T22:34:20;14.63;;;13.23;;
13455;SDS011;6800;50.940;6.940;2022-11-15T22:38:20;14.70;;;13.00;;
13455;SDS011;6800;50.940;6.940;2022-11-15T22:42:21;14.30;;;13.10;;
13455;SDS011;6800;50.940;6.940;2022-11-15T22:46:21;14.90;;;13.40;;
13455;SDS011;6800;50.940;6.940;2022-11-15T22:50:22;16.13;;;14.63;;
13455;SDS011;6800;50.940;6.940;2022-11-15T22:54:22;14.87;;;13.47;;
13455;SDS011;6800;50.940;6.940;2022-11-15T22:58:23;14.20;;;12.80;;
13455;SDS011;6800;50.940;6.940;2022-11-15T23:02:25;13.57;;;12.37;;
13455;SDS011;6800;50.940;6.940;2022-11-15T23:06:26;14.00;;;12.70;;
13455;SDS011;6800;50.940;6.940;2022-11-15T23:10:26;14.07;;;12.80;;
13455;SDS011;6800;50.940;6.940;2022-11-15T23:14:45;14.27;;;12.87;;
13455;SDS011;6800;50.940;6.940;2022-11-15T23:18:45;14.87;;;13.27;;
13455;SDS011;6800;50.940;6.940;2022-11-15T23:22:45;14.70;;;13.30;;
13455;SDS011;6800;50.940;6.940;2022-11-15T23:26:46;13.90;;;12.37;;
13455;SDS011;6800;50.940;6.940;2022-11-15T23:30:48;15.03;;;13.43;;
13455;SDS011;6800;50.940;6.940;2022-11-15T23:35:07;14.93;;;13.53;;
13455;SDS011;6800;50.940;6.940;2022-11-15T23:39:07;13.80;;;12.50;;
13455;SDS011;6800;50.940;6.940;2022-11-15T23:43:08;14.40;;;12.97;;
13455;SDS011;6800;50.940;6.940;2022-11-15T23:47:09;15.10;;;13.60;;
13455;SDS011;6800;50.940;6.940;2022-11-15T23:51:09;14.80;;;12.97;;
13455;SDS011;6800;50.940;6.940;2022-11-15T23:55:09;15.87;;;13.57;;
13455;SDS011;6800;50.940;6.940;2022-11-15T23:59:09;15.13;;;13.73;;
